createdAt,value
2018-07-11T00:04:55.275Z,6.33
2018-07-11T00:11:01.196Z,6.40
2018-07-11T00:17:10.985Z,6.57
2018-07-11T00:23:17.123Z,6.23
2018-07-11T00:29:27.919Z,6.23
2018-07-11T00:35:33.647Z,6.47
2018-07-11T00:41:39.570Z,6.50
2018-07-11T00:47:45.614Z,6.80
2018-07-11T00:53:53.111Z,7.50
2018-07-11T00:59:59.238Z,8.10
2018-07-11T01:06:05.066Z,7.97
2018-07-11T01:12:10.983Z,7.60
2018-07-11T01:18:17.957Z,9.73
2018-07-11T01:24:23.806Z,8.27
2018-07-11T01:30:29.577Z,8.90
2018-07-11T01:36:35.462Z,9.33
2018-07-11T01:42:41.362Z,9.43
2018-07-11T01:48:47.497Z,8.17
2018-07-11T01:54:53.792Z,8.60
2018-07-11T02:00:59.542Z,8.83
2018-07-11T02:07:05.837Z,8.77
2018-07-11T02:13:11.589Z,10.60
2018-07-11T02:19:21.965Z,11.00
2018-07-11T02:25:28.513Z,10.40
2018-07-11T02:31:34.332Z,8.90
2018-07-11T02:37:40.485Z,11.40
2018-07-11T02:43:46.290Z,12.63
2018-07-11T02:49:54.398Z,14.37
2018-07-11T02:56:00.177Z,18.60
2018-07-11T03:02:05.913Z,22.77
2018-07-11T03:08:12.271Z,20.00
2018-07-11T03:14:18.467Z,24.90
2018-07-11T03:20:26.106Z,27.50
2018-07-11T03:26:31.888Z,31.40
2018-07-11T03:32:37.667Z,28.97
2018-07-11T03:38:43.696Z,26.57
2018-07-11T03:44:49.806Z,25.80
2018-07-11T03:50:55.636Z,23.00
2018-07-11T03:57:01.466Z,22.10
2018-07-11T04:03:07.185Z,22.83
2018-07-11T04:09:13.085Z,23.70
2018-07-11T04:15:18.874Z,22.53
2018-07-11T04:21:26.614Z,23.57
2018-07-11T04:27:32.347Z,22.80
2018-07-11T04:33:38.388Z,22.90
2018-07-11T04:39:44.232Z,22.87
2018-07-11T04:45:50.612Z,23.00
2018-07-11T04:51:57.092Z,24.13
2018-07-11T04:58:02.840Z,27.43
2018-07-11T05:04:08.673Z,27.00
2018-07-11T05:10:14.350Z,29.47
2018-07-11T05:16:20.588Z,31.43
2018-07-11T05:22:26.644Z,33.00
2018-07-11T05:28:32.311Z,33.00
2018-07-11T05:34:38.397Z,33.93
2018-07-11T05:40:44.137Z,32.50
2018-07-11T05:46:54.612Z,31.47
2018-07-11T05:53:00.377Z,29.17
2018-07-11T05:59:06.349Z,29.80
2018-07-11T06:05:12.103Z,35.83
2018-07-11T06:11:25.600Z,29.80
2018-07-11T06:17:31.765Z,23.97
2018-07-11T06:23:37.592Z,19.97
2018-07-11T06:29:43.305Z,16.30
2018-07-11T06:35:49.482Z,16.63
2018-07-11T06:41:55.394Z,17.27
2018-07-11T06:48:01.650Z,15.87
2018-07-11T06:54:07.888Z,16.13
2018-07-11T07:00:13.643Z,19.07
2018-07-11T07:06:19.601Z,19.37
2018-07-11T07:12:25.777Z,18.17
2018-07-11T07:18:31.576Z,16.20
2018-07-11T07:24:37.277Z,15.33
2018-07-11T07:30:42.939Z,15.00
2018-07-11T07:36:49.251Z,15.73
2018-07-11T07:42:55.618Z,14.97
2018-07-11T07:49:01.344Z,12.73
2018-07-11T07:55:07.164Z,13.50
2018-07-11T08:01:12.880Z,14.10
2018-07-11T08:07:18.651Z,12.77
2018-07-11T08:13:24.769Z,12.83
2018-07-11T08:19:30.633Z,15.17
2018-07-11T08:25:47.611Z,13.53
2018-07-11T08:34:15.867Z,13.33
2018-07-11T08:41:36.638Z,14.30
2018-07-11T08:48:06.016Z,13.20
2018-07-11T08:56:54.595Z,12.80
2018-07-11T09:04:17.686Z,12.90
2018-07-11T09:11:51.569Z,8.70
2018-07-11T09:22:22.476Z,10.37
2018-07-11T09:28:28.207Z,6.00
2018-07-11T09:34:34.200Z,6.07
2018-07-11T09:40:39.972Z,7.10
2018-07-11T09:46:45.816Z,6.20
2018-07-11T09:52:52.252Z,3.87
2018-07-11T09:58:58.165Z,3.60
2018-07-11T10:05:04.218Z,3.80
2018-07-11T10:11:09.829Z,3.03
2018-07-11T10:17:15.565Z,2.77
2018-07-11T10:23:23.695Z,3.30
2018-07-11T10:29:30.372Z,2.17
2018-07-11T10:35:36.093Z,2.53
2018-07-11T10:41:41.710Z,3.40
2018-07-11T10:47:47.448Z,1.97
2018-07-11T10:53:53.419Z,2.10
2018-07-11T10:59:59.295Z,2.37
2018-07-11T11:06:05.041Z,2.87
2018-07-11T11:12:10.829Z,2.70
2018-07-11T11:18:16.650Z,3.27
2018-07-11T11:24:23.154Z,2.83
2018-07-11T11:30:28.838Z,4.27
2018-07-11T11:36:34.624Z,3.67
2018-07-11T11:42:40.508Z,5.73
2018-07-11T11:48:46.272Z,15.87
2018-07-11T11:54:53.115Z,4.30
2018-07-11T12:00:59.476Z,2.90
2018-07-11T12:07:05.591Z,2.80
2018-07-11T12:13:11.275Z,2.73
2018-07-11T12:19:17.046Z,3.27
2018-07-11T12:25:23.677Z,3.70
2018-07-11T12:31:29.629Z,4.60
2018-07-11T12:37:35.419Z,4.97
2018-07-11T12:43:41.326Z,4.73
2018-07-11T12:49:47.189Z,4.03
2018-07-11T12:55:53.488Z,5.07
2018-07-11T13:01:59.802Z,4.90
2018-07-11T13:08:05.626Z,4.47
2018-07-11T13:14:11.328Z,4.57
2018-07-11T13:20:17.354Z,4.50
2018-07-11T13:26:24.033Z,4.33
2018-07-11T13:32:31.176Z,3.90
2018-07-11T13:38:37.803Z,2.70
2018-07-11T13:44:43.513Z,2.87
2018-07-11T13:50:50.273Z,2.33
2018-07-11T13:56:56.511Z,2.00
2018-07-11T14:03:03.145Z,1.57
2018-07-11T14:09:08.868Z,1.80
2018-07-11T14:15:14.832Z,2.23
2018-07-11T14:21:21.108Z,2.77
2018-07-11T14:27:28.820Z,2.57
2018-07-11T14:33:35.293Z,2.27
2018-07-11T14:39:41.478Z,2.83
2018-07-11T14:45:47.565Z,3.57
2018-07-11T14:51:54.414Z,3.33
2018-07-11T14:58:00.370Z,3.90
2018-07-11T15:04:06.680Z,3.70
2018-07-11T15:10:12.636Z,3.77
2018-07-11T15:16:18.699Z,3.93
2018-07-11T15:22:25.761Z,4.17
2018-07-11T15:28:31.848Z,3.97
2018-07-11T15:34:38.133Z,4.90
2018-07-11T15:40:44.445Z,4.77
2018-07-11T15:46:51.158Z,4.57
2018-07-11T15:52:58.264Z,4.80
2018-07-11T15:59:10.192Z,4.50
2018-07-11T16:05:20.660Z,4.43
2018-07-11T16:11:27.169Z,4.40
2018-07-11T16:17:33.025Z,4.70
2018-07-11T16:23:38.918Z,4.60
2018-07-11T16:29:45.225Z,5.60
2018-07-11T16:35:52.513Z,5.40
2018-07-11T16:41:58.772Z,4.63
2018-07-11T16:48:04.607Z,4.30
2018-07-11T16:54:10.418Z,4.60
2018-07-11T17:00:17.625Z,4.13
2018-07-11T17:06:23.742Z,3.53
2018-07-11T17:12:29.786Z,4.17
2018-07-11T17:18:48.509Z,5.50
2018-07-11T17:24:55.195Z,4.90
2018-07-11T17:31:01.564Z,4.63
2018-07-11T17:37:08.667Z,4.57
2018-07-11T17:43:17.980Z,6.03
2018-07-11T17:49:34.204Z,5.57
2018-07-11T17:55:59.024Z,6.27
2018-07-11T18:02:14.636Z,6.00
2018-07-11T18:08:21.681Z,5.87
2018-07-11T18:15:34.538Z,6.50
2018-07-11T18:27:38.326Z,6.63
2018-07-11T18:35:01.316Z,5.70
2018-07-11T18:41:10.619Z,6.23
2018-07-11T18:48:33.445Z,6.20
2018-07-11T18:57:04.406Z,7.57
2018-07-11T19:03:24.413Z,6.97
2018-07-11T19:09:53.385Z,7.07
2018-07-11T19:16:16.747Z,6.73
2018-07-11T19:22:40.188Z,6.97
2018-07-11T19:28:59.774Z,6.60
2018-07-11T19:36:25.404Z,7.20
2018-07-11T19:42:51.599Z,6.77
2018-07-11T19:49:10.677Z,7.33
2018-07-11T19:57:28.460Z,7.50
2018-07-11T20:03:34.340Z,8.70
2018-07-11T20:09:40.938Z,9.30
2018-07-11T20:15:46.899Z,7.63
2018-07-11T20:21:53.740Z,6.97
2018-07-11T20:27:59.984Z,8.33
2018-07-11T20:34:06.377Z,6.80
2018-07-11T20:40:11.997Z,7.77
2018-07-11T20:46:17.882Z,9.03
2018-07-11T20:52:23.820Z,8.90
2018-07-11T20:58:46.573Z,8.93
2018-07-11T21:09:21.487Z,8.00
2018-07-11T21:18:53.244Z,9.07
2018-07-11T21:24:58.955Z,9.73
2018-07-11T21:31:05.274Z,11.47
2018-07-11T21:37:11.648Z,12.67
2018-07-11T21:43:17.083Z,10.00
2018-07-11T21:49:23.277Z,11.37
2018-07-11T21:55:29.016Z,14.17
2018-07-11T22:01:34.677Z,17.40
2018-07-11T22:07:40.786Z,14.10
2018-07-11T22:13:46.481Z,13.07
2018-07-11T22:19:50.821Z,14.70
2018-07-11T22:25:55.527Z,17.23
2018-07-11T22:31:59.033Z,17.90
2018-07-11T22:38:02.605Z,18.00
2018-07-11T22:44:06.159Z,17.47
2018-07-11T22:50:09.696Z,18.90
2018-07-11T22:56:13.241Z,18.67
2018-07-11T23:02:16.774Z,18.83
2018-07-11T23:08:20.733Z,21.03
2018-07-11T23:14:24.657Z,17.57
2018-07-11T23:20:28.295Z,21.00
2018-07-11T23:26:31.831Z,21.70
2018-07-11T23:32:35.399Z,21.90
2018-07-11T23:38:39.276Z,20.70
2018-07-11T23:44:42.772Z,21.37
2018-07-11T23:50:46.664Z,20.40
2018-07-11T23:56:51.804Z,21.03
